11°C
Porth, Newquay, Cornwall. UK  Tell A Friend
 Ad **Ad
Updated28/03/2017 03:15 
 


Nearby METAR Reports From


Metar Station     Metar Station     Metar Station     Metar Station     Metar Station
EGHQ Newquay     EGDR Culdrose (navy)     EGDX ST Athan raf     EGDY Yeovitilton (navy)     EGFF Cardiff
EGHH Bournemouth     EGBB Birmingham     EGKA Shoreham-By-Sea     EGOP Pembry Sands     EGTE Exeter Airport
EGGD Bristol     EGHE Scilly     EGJA Alderney     EGJB Guernsey     EGJJ Jersey
France       LFRC Cherbourg/Mauper     LFRB Brest/Guipavas     LFRO Lannion/Servel        
More Metars Here                                
EGHQ - Newquay, United Kingdom
Updated: 27/03/2017 21:50

NOT Current
Partly Cloudy
Partly Cloudy
 Wind from ESE
Wind: ESE 15 mph , 24 km/h, 13 kts
Temperature: 10°C
Wind Chill: 7°C
Dew Point: 6°C
Humidity: 76%
Barometer: 1016 hPa
Clouds: Partly Cloudy
Visibility: 4 miles , 7 km
2017/03/27 20:50 EGHQ 272050Z 11013KT 7000 NSC 10/06 Q1016
EGDR - Culdrose (navy), United Kingdom
Updated: 28/03/2017 02:50
Mist, Mostly cloudy
Mist, Mostly cloudy
 Wind from S
Wind: S 8 mph , 13 km/h, 7 kts
Temperature: 10°C
Wind Chill: 8°C
Dew Point: 10°C
Humidity: 100%
Barometer: 1016 hPa
Summary: Mist
Clouds: Mostly Cloudy
Visibility: 2 miles , 3 km
Cloud details: Partly Cloudy 91 m
Mostly Cloudy 152 m
2017/03/28 01:50 EGDR 280150Z 17007KT 3000 BR SCT003 BKN005 10/10 Q1016 YLO2
 
EGHC - Lands End, United Kingdom
Updated: 27/03/2017 18:20

NOT Current
Haze, Few clouds
Haze, Few clouds
 Wind from E
Wind: E 22 mph , 35 km/h, 19 kts
Temperature: 10°C
Wind Chill: 6°C
Dew Point: 8°C
Humidity: 88%
Barometer: 1016 hPa
Summary: Haze
Clouds: Few Clouds
Visibility: 3 miles , 5 km
Cloud details: Few Clouds 853 m
2017/03/27 17:20 EGHC 271720Z 10019KT 5000 HZ FEW028 10/08 Q1016
EGHE - Scilly Saint Mar, United Kingdom
Updated: 27/03/2017 18:20

NOT Current
Haze, Few clouds
Haze, Few clouds
 Wind from E
Wind: E 30 mph , 48 km/h, 26 kts
Temperature: 11°C
Dew Point: 9°C
Humidity: 88%
Barometer: 1015 hPa
Summary: Haze
Clouds: Few Clouds
Visibility: 2 miles , 3 km
Cloud details: Few Clouds 457 m
2017/03/27 17:20 EGHE 271720Z 10026KT 2500 HZ FEW015 11/09 Q1015
 
EGTE - Exeter Airport, United Kingdom
Updated: 28/03/2017 02:20
Haze, Few clouds
Haze, Few clouds
 Wind from W
Wind: W 2 mph , 4 km/h, 2 kts
Temperature: 4°C
Dew Point: 3°C
Humidity: 93%
Barometer: 1017 hPa
Summary: Haze
Clouds: Few Clouds
Visibility: 3 miles , 5 km
Cloud details: Few Clouds 1463 m
2017/03/28 01:20 EGTE 280120Z 27002KT 5000 HZ FEW048 04/03 Q1017
EGOP - Pembry Sands, United Kingdom
Updated: 28/03/2017 02:50
Few Clouds
Few Clouds
 Wind from SE
Wind: SE 2 mph , 4 km/h, 2 kts
Temperature: 3°C
Dew Point: 2°C
Humidity: 93%
Barometer: 1016 hPa
Clouds: Few Clouds
Visibility: 1 mile , 2 km
Cloud details: Few Clouds 1524 m
2017/03/28 01:50 EGOP 280150Z AUTO 13002KT 2200 // FEW050/// 03/02 Q1016
 
EGDX - St Athan Raf, United Kingdom
Updated: 28/03/2017 02:50
Haze, Clear
Haze, Clear
 Wind from E
Wind: E 10 mph , 17 km/h, 9 kts
Temperature: 7°C
Wind Chill: 4°C
Dew Point: 6°C
Humidity: 93%
Barometer: 1017 hPa
Summary: Haze
Clouds: Clear
Visibility: 2 miles , 4 km
2017/03/28 01:50 EGDX 280150Z AUTO 08009KT 3600 HZ NCD 07/06 Q1017
EGFF - Cardiff-Wales Ar, United Kingdom
Updated: 28/03/2017 03:20
Haze, Clear
Haze, Clear
 Wind from E
Wind: E 9 mph , 15 km/h, 8 kts
Temperature: 7°C
Wind Chill: 4°C
Dew Point: 6°C
Humidity: 93%
Barometer: 1017 hPa
Summary: Haze
Clouds: Clear
Visibility: 2 miles , 4 km
2017/03/28 02:20 EGFF 280220Z AUTO 08008KT 3800 HZ NCD 07/06 Q1017
 
EGDY - Yeovilton (navy), United Kingdom
Updated: 28/03/2017 02:50
Clear
Clear
 Wind from ESE
Wind: ESE 2 mph , 4 km/h, 2 kts
Temperature: 5°C
Dew Point: 4°C
Humidity: 93%
Barometer: 1018 hPa
Summary: Clear
Visibility: greater than 7 miles , 10 km
2017/03/28 01:50 EGDY 280150Z 11002KT CAVOK 05/04 Q1018 BLU
EGGD - Bristol/Lulsgate, United Kingdom
Updated: 28/03/2017 03:20
Haze, Mostly cloudy
Haze, Mostly cloudy
 Wind from E
Wind: E 10 mph , 17 km/h, 9 kts
Temperature: 6°C
Wind Chill: 3°C
Dew Point: 5°C
Humidity: 93%
Barometer: 1017 hPa
Summary: Haze
Clouds: Mostly Cloudy
Visibility: 2 miles , 4 km
Cloud details: Mostly Cloudy 1372 m
2017/03/28 02:20 EGGD 280220Z AUTO 10009KT 3600 HZ BKN045 06/05 Q1017
 
EGBB - Birmingham Airpo, United Kingdom
Updated: 28/03/2017 03:20
Fog, Overcast
Fog, Overcast
 Wind from ESE
Wind: ESE 7 mph , 11 km/h, 6 kts
Temperature: 6°C
Wind Chill: 4°C
Dew Point: 6°C
Humidity: 100%
Barometer: 1019 hPa
Summary: Fog
Clouds: Overcast
Visibility: 0 mile , 1 km
Cloud details: Overcast 30 m
2017/03/28 02:20 EGBB 280220Z 11006KT 0500 R15/P1500 FG OVC001 06/06 Q1019
EGHH - Bournemouth Airp, United Kingdom
Updated: 27/03/2017 23:50

NOT Current
Partly Cloudy
Partly Cloudy
 Wind from E
Wind: E 3 mph , 6 km/h, 3 kts
Temperature: 7°C
Dew Point: 5°C
Humidity: 87%
Barometer: 1018 hPa
Clouds: Partly Cloudy
Visibility: 5 miles , 8 km
2017/03/27 22:50 EGHH 272250Z 09003KT 8000 NSC 07/05 Q1018
 
EGKA - Shoreham-By-Sea, United Kingdom
Updated: 27/03/2017 18:50

NOT Current
Partly Cloudy
Partly Cloudy
 Wind from ESE
Wind: ESE 8 mph , 13 km/h, 7 kts
Temperature: 12°C
Dew Point: 6°C
Humidity: 67%
Barometer: 1019 hPa
Clouds: Partly Cloudy
Visibility: 5 miles , 8 km
2017/03/27 17:50 EGKA 271750Z 11007KT 8000 NSC 12/06 Q1019
EGJA - Alderney/Channel, United Kingdom
Updated: 27/03/2017 18:20

NOT Current
Partly Cloudy
Partly Cloudy
 Wind from ENE
Wind: ENE 12 mph , 19 km/h, 10 kts
Temperature: 10°C
Wind Chill: 7°C
Dew Point: 8°C
Humidity: 88%
Barometer: 1018 hPa
Clouds: Partly Cloudy
Visibility: 5 miles , 8 km
Cloud details: Partly Cloudy 1463 m
2017/03/27 17:20 EGJA 271720Z 07010KT 8000 SCT048 10/08 Q1018
 
EGJB - Guernsey Airport, United Kingdom
Updated: 27/03/2017 22:20

NOT Current
Clear
Clear
 Wind from ESE
Wind: ESE 7 mph , 11 km/h, 6 kts
Temperature: 12°C
Dew Point: 7°C
Humidity: 72%
Barometer: 1018 hPa
Summary: Clear
Visibility: greater than 7 miles , 10 km
2017/03/27 21:20 EGJB 272120Z 12006KT 090V150 CAVOK 12/07 Q1018
EGJJ - Jersey Airport, United Kingdom
Updated: 27/03/2017 22:20

NOT Current
Partly Cloudy
Partly Cloudy
 Wind from E
Wind: E 10 mph , 17 km/h, 9 kts
Temperature: 9°C
Wind Chill: 7°C
Dew Point: 7°C
Humidity: 87%
Barometer: 1018 hPa
Clouds: Partly Cloudy
Visibility: 5 miles , 8 km
2017/03/27 21:20 EGJJ 272120Z 10009KT 8000 NSC 09/07 Q1018 NOSIG
 
LFRC - Cherbourg/Mauper, France
Updated: 28/03/2017 03:00
Partly Cloudy
Partly Cloudy
 Wind from S
Wind: S 8 mph , 13 km/h, 7 kts
Temperature: 8°C
Wind Chill: 6°C
Dew Point: 6°C
Humidity: 87%
Barometer: 1018 hPa
Clouds: Partly Cloudy
Visibility: 4 miles , 6 km
2017/03/28 02:00 LFRC 280200Z AUTO 17007KT 6000 NSC 08/06 Q1018
LFRB - Brest/Guipavas, France
Updated: 28/03/2017 03:00
Overcast
Overcast
 Wind from S
Wind: S 13 mph , 20 km/h, 11 kts
Temperature: 10°C
Wind Chill: 7°C
Dew Point: 9°C
Humidity: 94%
Barometer: 1018 hPa
Clouds: Overcast
Visibility: 6 miles , 10 km
Cloud details: Overcast 244 m
2017/03/28 02:00 LFRB 280200Z AUTO 18011KT 9999 OVC008 10/09 Q1018 TEMPO OVC003
 
LFRO - Lannion/Servel, France
Updated: 28/03/2017 03:00
Clear
Clear
 Wind from SSE
Wind: SSE 3 mph , 6 km/h, 3 kts
Temperature: 8°C
Dew Point: 7°C
Humidity: 93%
Barometer: 1018 hPa
Summary: Clear
Visibility: greater than 7 miles , 10 km
2017/03/28 02:00 LFRO 280200Z AUTO 15003KT CAVOK 08/07 Q1018

# Note Plymouth airport closed 23/12/2011

Metar, brief description

METAR is a format for reporting weather information. A METAR weather report is predominantly used by pilots in fulfillment of a part of a pre-flight weather briefing, and by meteorologists, who use aggregated METAR information to assist in weather forecasting.

Raw METAR is the most popular format in the world for the transmission of weather data. Each METAR report contains essential information about the current weather conditions: Temperature, Dew Point, Barometric Pressure, Wind Speed and Direction, Visibility, Clouds Cover, Current Weather (Rain, Thunderstorms, Hail, Snow and so on...), here is an example of a raw metar report for EGHQ (Newquay airport).
METAR not available